Time;durP1;ratioP1;P1;durP2;ratioP2;P2;SDS_P1;SDS_P2;PMS_P1;PMS_P2;Temp;Humidity;BMP_temperature;BMP_pressure;BME280_temperature;BME280_humidity;BME280_pressure;Samples;Min_cycle;Max_cycle;Signal;HPM_P1;HPM_P2
2021/01/24 00:00:30;;;;;;;18.40;10.70;;;1.80;99.90;;;;;;4931632;29;20039;-83
2021/01/24 00:02:56;;;;;;;24.48;11.02;;;1.80;99.90;;;;;;4948968;28;20086;-84
2021/01/24 00:05:23;;;;;;;19.92;11.20;;;2.00;99.90;;;;;;4915892;29;20047;-84
2021/01/24 00:07:49;;;;;;;18.52;9.15;;;1.80;99.90;;;;;;4930843;29;20056;-84
2021/01/24 00:10:17;;;;;;;25.83;11.13;;;1.80;99.90;;;;;;4915085;29;20114;-84
2021/01/24 00:12:43;;;;;;;26.50;10.63;;;1.80;99.90;;;;;;4947198;29;20064;-84
2021/01/24 00:15:10;;;;;;;20.08;9.90;;;1.80;99.90;;;;;;4930870;29;20043;-84
2021/01/24 00:17:36;;;;;;;18.75;10.80;;;1.70;99.90;;;;;;4946977;29;20048;-83
2021/01/24 00:20:03;;;;;;;19.20;10.98;;;1.70;99.90;;;;;;4930732;29;20050;-84
2021/01/24 00:22:29;;;;;;;14.38;9.75;;;1.70;99.90;;;;;;4946917;29;20969;-85
2021/01/24 00:24:55;;;;;;;16.02;11.13;;;1.70;99.90;;;;;;4915213;29;20130;-86
2021/01/24 00:27:22;;;;;;;24.33;11.32;;;1.70;99.90;;;;;;4932478;29;20058;-85
2021/01/24 00:29:48;;;;;;;22.52;10.65;;;1.70;99.90;;;;;;4932295;29;20047;-83
2021/01/24 00:32:15;;;;;;;21.27;10.55;;;1.60;99.90;;;;;;4947471;28;20031;-84
2021/01/24 00:34:42;;;;;;;24.58;10.93;;;1.60;99.90;;;;;;4915473;29;20043;-86
2021/01/24 00:37:08;;;;;;;22.55;10.57;;;1.50;99.90;;;;;;4931095;29;20047;-84
2021/01/24 00:39:34;;;;;;;14.90;10.05;;;1.40;99.90;;;;;;4932196;29;20051;-84
2021/01/24 00:42:00;;;;;;;17.40;9.82;;;1.40;99.90;;;;;;4931468;29;20052;-84
2021/01/24 00:44:26;;;;;;;22.63;10.27;;;1.40;99.90;;;;;;4915282;29;20046;-83
2021/01/24 00:46:52;;;;;;;20.30;10.63;;;1.40;99.90;;;;;;4899197;29;20132;-84
2021/01/24 00:49:17;;;;;;;20.02;10.32;;;1.30;99.90;;;;;;4898884;29;20067;-84
2021/01/24 00:51:44;;;;;;;14.23;10.00;;;1.30;99.90;;;;;;4930515;29;20095;-84
2021/01/24 00:54:09;;;;;;;20.00;10.32;;;1.20;99.90;;;;;;4929676;29;20131;-84
2021/01/24 00:56:35;;;;;;;17.85;10.82;;;1.20;99.90;;;;;;4915040;29;20151;-83
2021/01/24 00:59:01;;;;;;;22.65;12.10;;;1.20;99.90;;;;;;4930331;29;20055;-84
2021/01/24 01:01:27;;;;;;;18.52;11.68;;;1.20;99.90;;;;;;4945130;28;20044;-84
2021/01/24 01:03:53;;;;;;;29.77;12.68;;;1.20;99.90;;;;;;4930591;29;20047;-83
2021/01/24 01:06:18;;;;;;;13.77;8.63;;;1.30;99.90;;;;;;4929780;29;20050;-84
2021/01/24 01:08:44;;;;;;;16.75;8.88;;;1.20;99.90;;;;;;4930583;29;20050;-83
2021/01/24 01:11:11;;;;;;;17.70;10.70;;;1.20;99.90;;;;;;4885439;29;20066;-83
2021/01/24 01:13:39;;;;;;;25.60;9.93;;;1.20;99.90;;;;;;4915383;29;20538;-85
2021/01/24 01:16:05;;;;;;;14.00;9.75;;;1.10;99.90;;;;;;4904940;29;20044;-83
2021/01/24 01:18:31;;;;;;;14.23;9.85;;;1.10;99.90;;;;;;4934341;29;20051;-84
2021/01/24 01:20:58;;;;;;;19.95;10.65;;;1.10;99.90;;;;;;4935579;29;20063;-86
2021/01/24 01:23:24;;;;;;;23.42;10.55;;;1.10;99.90;;;;;;4949794;29;20047;-85
2021/01/24 01:25:54;;;;;;;19.23;9.95;;;1.10;99.90;;;;;;4950426;29;20114;-85
2021/01/24 01:28:20;;;;;;;13.85;8.82;;;1.00;99.90;;;;;;4933296;29;20067;-84
2021/01/24 01:30:46;;;;;;;18.20;9.68;;;1.00;99.90;;;;;;4918875;29;20082;-85
2021/01/24 01:33:12;;;;;;;19.52;10.20;;;0.90;99.90;;;;;;4937231;28;20058;-85
2021/01/24 01:35:38;;;;;;;16.77;9.38;;;0.80;99.90;;;;;;4934143;29;20483;-85
2021/01/24 01:38:04;;;;;;;13.15;9.95;;;0.80;99.90;;;;;;4933368;29;20093;-85
2021/01/24 01:40:30;;;;;;;21.55;10.60;;;0.90;99.90;;;;;;4933879;29;20051;-85
2021/01/24 01:42:57;;;;;;;20.65;11.85;;;0.80;99.90;;;;;;4935306;29;20071;-84
2021/01/24 01:45:23;;;;;;;16.55;11.23;;;0.70;99.90;;;;;;4917179;29;20126;-85
2021/01/24 01:47:49;;;;;;;26.20;12.13;;;0.80;99.90;;;;;;4933808;29;20078;-84
2021/01/24 01:50:17;;;;;;;22.20;10.80;;;0.70;99.90;;;;;;4932550;29;20493;-84
2021/01/24 01:52:43;;;;;;;27.40;15.43;;;0.60;99.90;;;;;;4935050;29;20054;-85
2021/01/24 01:55:09;;;;;;;31.10;17.00;;;0.70;99.90;;;;;;4933758;29;20039;-84
2021/01/24 01:57:35;;;;;;;24.88;14.52;;;0.70;99.90;;;;;;4933922;29;20091;-84
2021/01/24 02:00:01;;;;;;;18.05;13.25;;;0.70;99.90;;;;;;4917493;29;20058;-87
2021/01/24 02:02:53;;;;;;;17.05;11.80;;;0.80;99.90;;;;;;4937814;29;20478;-85
2021/01/24 02:05:47;;;;;;;18.40;10.98;;;0.70;99.90;;;;;;4948790;29;20048;-85
2021/01/24 02:08:20;;;;;;;24.25;12.75;;;0.70;99.90;;;;;;4949091;29;20044;-84
2021/01/24 02:10:55;;;;;;;20.98;11.85;;;0.70;99.90;;;;;;4934253;29;20528;-85
2021/01/24 02:13:26;;;;;;;29.70;12.45;;;0.70;99.90;;;;;;4932990;29;20793;-84
2021/01/24 02:15:54;;;;;;;19.65;12.50;;;0.60;99.90;;;;;;4916711;29;20062;-85
2021/01/24 02:18:21;;;;;;;25.73;13.35;;;0.60;99.90;;;;;;4932988;29;20044;-84
2021/01/24 02:21:12;;;;;;;27.77;15.02;;;0.50;99.90;;;;;;4933146;29;20548;-85
2021/01/24 02:23:40;;;;;;;38.67;14.98;;;0.50;99.90;;;;;;4933302;29;20397;-85
2021/01/24 02:26:12;;;;;;;31.10;15.15;;;0.60;99.90;;;;;;4932289;29;20067;-86
2021/01/24 02:29:06;;;;;;;23.85;12.65;;;0.60;99.90;;;;;;4934536;29;20123;-85
2021/01/24 02:31:33;;;;;;;27.60;13.05;;;0.60;99.90;;;;;;4933626;29;20513;-85
2021/01/24 02:34:00;;;;;;;28.88;14.02;;;0.50;99.90;;;;;;4948976;29;20449;-85
2021/01/24 02:36:28;;;;;;;31.00;14.13;;;0.50;99.90;;;;;;4916903;29;20167;-85
2021/01/24 02:38:57;;;;;;;34.67;15.50;;;0.40;99.90;;;;;;4948921;29;20383;-85
2021/01/24 02:41:25;;;;;;;29.90;16.05;;;0.30;99.90;;;;;;4933118;29;20044;-84
2021/01/24 02:43:51;;;;;;;27.48;14.02;;;0.30;99.90;;;;;;4948976;29;20043;-85
2021/01/24 02:46:18;;;;;;;27.80;12.85;;;0.30;99.90;;;;;;4931770;29;20058;-86
2021/01/24 02:48:45;;;;;;;31.13;13.20;;;0.30;99.90;;;;;;4917342;29;20047;-83
2021/01/24 02:51:13;;;;;;;28.73;14.20;;;0.20;99.90;;;;;;4947651;29;20498;-85
2021/01/24 02:53:39;;;;;;;34.00;14.90;;;0.20;99.90;;;;;;4901143;29;20048;-85
2021/01/24 02:56:07;;;;;;;24.50;15.95;;;0.20;99.90;;;;;;4916519;29;20058;-87
2021/01/24 02:58:33;;;;;;;39.08;18.08;;;0.20;99.90;;;;;;4932218;29;20079;-84
2021/01/24 03:00:58;;;;;;;24.13;14.55;;;0.20;99.90;;;;;;4934189;29;20575;-85
2021/01/24 03:03:26;;;;;;;27.00;14.93;;;0.20;99.90;;;;;;4951390;28;20132;-84
2021/01/24 03:05:51;;;;;;;28.08;13.98;;;0.20;99.90;;;;;;4932369;29;20059;-85
2021/01/24 03:08:19;;;;;;;23.70;14.30;;;0.20;99.90;;;;;;4931496;29;20051;-87
2021/01/24 03:10:45;;;;;;;22.60;11.82;;;0.10;99.90;;;;;;4916717;29;20055;-84
2021/01/24 03:13:32;;;;;;;26.65;13.80;;;0.10;99.90;;;;;;4915914;29;20059;-86
2021/01/24 03:15:59;;;;;;;30.10;13.15;;;0.10;99.90;;;;;;4933592;29;20031;-85
2021/01/24 03:18:29;;;;;;;26.33;13.40;;;0.10;99.90;;;;;;4916071;29;20051;-86
2021/01/24 03:20:57;;;;;;;30.30;16.25;;;0.00;99.90;;;;;;4933611;29;20401;-87
2021/01/24 03:23:24;;;;;;;37.92;16.63;;;-0.10;99.90;;;;;;4931808;29;20043;-85
2021/01/24 03:25:51;;;;;;;37.67;16.42;;;-0.10;99.90;;;;;;4948012;29;20130;-85
2021/01/24 03:28:18;;;;;;;163.07;23.92;;;0.00;99.90;;;;;;4932471;29;20087;-84
2021/01/24 03:30:46;;;;;;;204.57;26.40;;;-0.10;99.90;;;;;;4932310;29;20523;-84
2021/01/24 03:33:12;;;;;;;172.88;25.10;;;-0.10;99.90;;;;;;4930439;29;20082;-87
2021/01/24 03:35:38;;;;;;;71.90;23.15;;;-0.10;99.90;;;;;;4931812;29;20470;-84
2021/01/24 03:38:03;;;;;;;56.25;21.77;;;-0.10;99.90;;;;;;4932196;29;20046;-84
2021/01/24 03:40:32;;;;;;;40.45;20.80;;;-0.10;99.90;;;;;;4931191;29;20985;-84
2021/01/24 03:42:58;;;;;;;38.70;19.00;;;-0.10;99.90;;;;;;4916136;29;20163;-85
2021/01/24 03:45:24;;;;;;;44.80;19.02;;;0.50;99.90;;;;;;4931076;29;20401;-85
2021/01/24 03:47:50;;;;;;;34.88;19.48;;;0.00;99.90;;;;;;4915684;29;20067;-85
2021/01/24 03:50:16;;;;;;;38.72;18.80;;;0.00;99.90;;;;;;4914847;29;20039;-85
2021/01/24 03:52:41;;;;;;;43.63;21.10;;;0.00;99.90;;;;;;4931336;29;20158;-85
2021/01/24 03:55:08;;;;;;;28.10;16.98;;;0.00;99.90;;;;;;4915800;29;20055;-84
2021/01/24 03:57:34;;;;;;;44.33;19.73;;;0.10;99.90;;;;;;4930742;29;20043;-84
2021/01/24 04:00:00;;;;;;;39.38;18.45;;;0.10;99.90;;;;;;4929569;29;20044;-84
2021/01/24 04:02:26;;;;;;;36.15;18.58;;;0.00;99.90;;;;;;4930817;29;20046;-85
2021/01/24 04:04:52;;;;;;;39.20;20.05;;;0.10;99.90;;;;;;4931714;29;20047;-84
2021/01/24 04:07:18;;;;;;;38.97;18.13;;;0.10;99.90;;;;;;4930585;29;20075;-85
2021/01/24 04:09:43;;;;;;;41.25;19.13;;;0.10;99.90;;;;;;4931123;29;20043;-84
2021/01/24 04:12:10;;;;;;;44.53;20.17;;;0.00;99.90;;;;;;4915474;29;20108;-83
2021/01/24 04:14:36;;;;;;;50.55;21.08;;;0.10;99.90;;;;;;4930704;29;20047;-83
2021/01/24 04:17:03;;;;;;;40.80;18.42;;;0.10;99.90;;;;;;4947378;29;20139;-84
2021/01/24 04:19:29;;;;;;;44.78;19.20;;;0.10;99.90;;;;;;4914944;29;20054;-83
2021/01/24 04:21:54;;;;;;;40.78;19.20;;;0.10;99.90;;;;;;4931398;29;20099;-83
2021/01/24 04:24:20;;;;;;;47.88;19.83;;;0.10;99.90;;;;;;4930563;29;20067;-83
2021/01/24 04:26:47;;;;;;;50.42;20.63;;;0.10;99.90;;;;;;4930954;29;20048;-83
2021/01/24 04:29:12;;;;;;;55.65;21.30;;;0.10;99.90;;;;;;4915319;29;20401;-83
2021/01/24 04:31:38;;;;;;;53.42;21.20;;;0.20;99.90;;;;;;4930506;29;20067;-82
2021/01/24 04:34:04;;;;;;;55.83;21.63;;;0.20;99.90;;;;;;4932097;29;20047;-83
2021/01/24 04:36:30;;;;;;;55.17;22.55;;;0.30;99.90;;;;;;4929881;29;20047;-83
2021/01/24 04:38:55;;;;;;;55.42;23.02;;;0.30;99.90;;;;;;4931180;29;20509;-82
2021/01/24 04:41:22;;;;;;;60.60;24.13;;;0.30;99.90;;;;;;4898509;29;20062;-82
2021/01/24 04:43:49;;;;;;;57.33;22.65;;;0.30;99.90;;;;;;4931085;29;20102;-82
2021/01/24 04:46:15;;;;;;;33.42;14.77;;;0.40;99.90;;;;;;4930355;29;20473;-83
2021/01/24 04:48:40;;;;;;;45.10;20.30;;;0.30;99.90;;;;;;4930158;29;20048;-82
2021/01/24 04:51:06;;;;;;;56.05;22.55;;;0.30;99.90;;;;;;4927369;29;20040;-84
2021/01/24 04:53:33;;;;;;;45.35;21.48;;;0.30;99.90;;;;;;4928469;29;20044;-83
2021/01/24 04:56:01;;;;;;;42.65;20.15;;;0.40;99.90;;;;;;4930836;29;20126;-83
2021/01/24 04:58:30;;;;;;;40.53;19.52;;;0.40;99.90;;;;;;4931236;29;20589;-84
2021/01/24 05:00:57;;;;;;;43.05;20.58;;;0.40;99.90;;;;;;4932188;29;20063;-83
2021/01/24 05:03:22;;;;;;;47.60;19.45;;;0.30;99.90;;;;;;4935339;29;20132;-83
2021/01/24 05:05:48;;;;;;;47.78;21.48;;;0.30;99.90;;;;;;4930902;29;20414;-83
2021/01/24 05:08:16;;;;;;;44.28;19.15;;;0.30;99.90;;;;;;4930715;29;20152;-83
2021/01/24 05:10:45;;;;;;;46.28;19.55;;;0.30;99.90;;;;;;4945323;29;20056;-83
2021/01/24 05:13:11;;;;;;;57.97;21.52;;;0.40;99.90;;;;;;4920656;29;20036;-83
2021/01/24 05:15:37;;;;;;;47.80;20.85;;;0.40;99.90;;;;;;4945888;29;20650;-83
2021/01/24 05:18:03;;;;;;;39.97;19.55;;;0.40;99.90;;;;;;4930449;29;20051;-83
2021/01/24 05:20:31;;;;;;;46.13;20.58;;;0.40;99.90;;;;;;4931057;29;20048;-83
2021/01/24 05:23:00;;;;;;;36.42;18.92;;;0.40;99.90;;;;;;4931471;29;20054;-83
2021/01/24 05:25:31;;;;;;;52.33;20.40;;;0.40;99.90;;;;;;4945953;29;20500;-83
2021/01/24 05:28:18;;;;;;;55.60;21.88;;;0.40;99.90;;;;;;4930090;29;20039;-83
2021/01/24 05:30:44;;;;;;;48.67;20.35;;;0.40;99.90;;;;;;4946142;29;20035;-83
2021/01/24 05:33:09;;;;;;;45.63;19.60;;;0.50;99.90;;;;;;4945307;29;20040;-83
2021/01/24 05:35:52;;;;;;;38.47;20.30;;;0.40;99.90;;;;;;4914017;29;20052;-83
2021/01/24 05:38:30;;;;;;;30.88;17.45;;;0.40;99.90;;;;;;4930175;29;20533;-83
2021/01/24 05:40:59;;;;;;;31.95;15.43;;;0.40;99.90;;;;;;4932026;29;20094;-83
2021/01/24 05:43:27;;;;;;;53.80;23.67;;;0.30;99.90;;;;;;4930953;29;20539;-83
2021/01/24 05:45:53;;;;;;;55.92;22.30;;;0.40;99.90;;;;;;4930499;29;20071;-82
2021/01/24 05:48:20;;;;;;;44.58;21.90;;;0.40;99.90;;;;;;4931472;29;20039;-83
2021/01/24 05:50:46;;;;;;;51.17;20.70;;;0.50;99.90;;;;;;4945966;29;20102;-83
2021/01/24 05:53:13;;;;;;;47.28;20.98;;;0.60;99.90;;;;;;4931026;29;20099;-83
2021/01/24 05:55:42;;;;;;;48.05;20.38;;;0.60;99.90;;;;;;4929810;29;20054;-83
2021/01/24 05:58:15;;;;;;;48.28;20.52;;;0.60;99.90;;;;;;4930323;29;20144;-83
2021/01/24 06:00:43;;;;;;;45.08;19.33;;;0.60;99.90;;;;;;4932578;29;20054;-83
2021/01/24 06:03:10;;;;;;;41.75;18.83;;;0.80;99.90;;;;;;4949258;28;20514;-83
2021/01/24 06:05:37;;;;;;;37.47;18.75;;;0.60;99.90;;;;;;4929461;29;20126;-82
2021/01/24 06:08:04;;;;;;;53.13;18.45;;;0.60;99.90;;;;;;4930473;29;20048;-82
2021/01/24 06:10:30;;;;;;;44.05;18.35;;;0.60;99.90;;;;;;4946629;29;20118;-82
2021/01/24 06:12:59;;;;;;;46.00;18.55;;;0.70;99.90;;;;;;4933591;29;20050;-83
2021/01/24 06:15:28;;;;;;;34.83;17.45;;;0.70;99.90;;;;;;4933139;29;20047;-82
2021/01/24 06:18:00;;;;;;;30.25;16.65;;;0.70;99.90;;;;;;4934426;29;20040;-83
2021/01/24 06:20:39;;;;;;;43.20;17.80;;;0.70;99.90;;;;;;4933820;29;20047;-82
2021/01/24 06:23:14;;;;;;;45.33;19.05;;;0.60;99.90;;;;;;4934161;29;20137;-82
2021/01/24 06:25:44;;;;;;;47.78;19.77;;;0.70;99.90;;;;;;4932809;29;20040;-82
2021/01/24 06:28:21;;;;;;;44.22;20.90;;;0.70;99.90;;;;;;4934378;29;20040;-83
2021/01/24 06:30:49;;;;;;;55.13;21.02;;;0.60;99.90;;;;;;4932912;29;20099;-82
2021/01/24 06:33:19;;;;;;;53.42;22.20;;;0.70;99.90;;;;;;4934147;29;20098;-83
2021/01/24 06:35:45;;;;;;;;;;;0.70;99.90;;;;;;4934230;29;20677;-83
2021/01/24 06:38:24;;;;;;;42.30;18.85;;;0.80;99.90;;;;;;4933564;29;20145;-83
2021/01/24 06:40:50;;;;;;;47.28;20.58;;;0.80;99.90;;;;;;4926483;29;20099;-83
2021/01/24 06:43:44;;;;;;;42.72;21.33;;;0.80;99.90;;;;;;4917137;29;20423;-83
2021/01/24 06:46:28;;;;;;;44.55;18.48;;;0.90;99.90;;;;;;4934138;29;20071;-82
2021/01/24 06:48:55;;;;;;;39.25;17.17;;;0.90;99.90;;;;;;4933730;29;20467;-82
2021/01/24 06:51:41;;;;;;;42.72;18.23;;;1.00;99.90;;;;;;4929314;29;20474;-82
2021/01/24 06:54:26;;;;;;;34.90;17.73;;;0.90;99.90;;;;;;4948870;29;20091;-82
2021/01/24 06:56:52;;;;;;;36.15;18.25;;;0.90;99.90;;;;;;4932149;29;20470;-82
2021/01/24 06:59:29;;;;;;;38.97;17.58;;;0.90;99.90;;;;;;4932846;29;20044;-82
2021/01/24 07:02:34;;;;;;;36.38;16.90;;;0.90;99.90;;;;;;4939705;29;20050;-82
2021/01/24 07:05:20;;;;;;;29.65;15.82;;;1.00;99.90;;;;;;4933771;29;20474;-83
2021/01/24 07:07:48;;;;;;;30.17;16.02;;;0.90;99.90;;;;;;4932180;29;20176;-82
2021/01/24 07:10:36;;;;;;;30.65;15.65;;;0.90;99.90;;;;;;4948567;29;20048;-83
2021/01/24 07:13:25;;;;;;;33.33;16.77;;;0.80;99.90;;;;;;4927050;29;20063;-83
2021/01/24 07:16:07;;;;;;;33.65;15.75;;;0.80;99.90;;;;;;4932378;29;20081;-83
2021/01/24 07:18:43;;;;;;;29.38;17.15;;;0.80;99.90;;;;;;4932470;29;20079;-83
2021/01/24 07:21:12;;;;;;;29.95;15.63;;;0.80;99.90;;;;;;4933453;29;20036;-83
2021/01/24 07:23:41;;;;;;;35.05;15.98;;;0.80;99.90;;;;;;4931298;29;20410;-83
2021/01/24 07:26:10;;;;;;;36.40;15.73;;;0.80;99.90;;;;;;4916434;29;20126;-83
2021/01/24 07:28:37;;;;;;;38.38;17.75;;;0.80;99.90;;;;;;4930938;29;20051;-83
2021/01/24 07:31:04;;;;;;;29.25;15.48;;;0.70;99.90;;;;;;4931604;29;20048;-82
2021/01/24 07:33:31;;;;;;;29.40;14.52;;;0.70;99.90;;;;;;4947657;29;20103;-83
2021/01/24 07:36:03;;;;;;;27.23;14.52;;;0.70;99.90;;;;;;4933259;29;20122;-83
2021/01/24 07:38:29;;;;;;;28.75;15.68;;;0.70;99.90;;;;;;4928662;29;20047;-83
2021/01/24 07:41:00;;;;;;;31.83;14.75;;;0.70;99.90;;;;;;4924794;29;20052;-83
2021/01/24 07:43:29;;;;;;;35.53;15.07;;;0.70;99.90;;;;;;4947589;29;20458;-83
2021/01/24 07:45:55;;;;;;;29.27;14.15;;;0.70;99.90;;;;;;4931743;29;20196;-83
2021/01/24 07:48:21;;;;;;;28.35;15.52;;;0.70;99.90;;;;;;4932964;29;20036;-83
2021/01/24 07:50:47;;;;;;;28.42;15.73;;;0.80;99.90;;;;;;4915320;29;20142;-84
2021/01/24 07:53:13;;;;;;;33.97;16.27;;;0.70;99.90;;;;;;4933697;29;20044;-84
2021/01/24 07:55:41;;;;;;;31.23;14.27;;;0.70;99.90;;;;;;4927946;29;20044;-85
2021/01/24 07:58:08;;;;;;;28.95;13.45;;;0.70;99.90;;;;;;4925901;29;20111;-85
2021/01/24 08:00:34;;;;;;;24.45;12.63;;;0.80;99.90;;;;;;4947003;29;20043;-85
2021/01/24 08:03:01;;;;;;;25.83;11.07;;;0.90;99.90;;;;;;4938538;29;20048;-85
2021/01/24 08:05:31;;;;;;;17.92;11.05;;;0.90;99.90;;;;;;4932448;29;20047;-85
2021/01/24 08:07:57;;;;;;;26.95;10.70;;;0.90;99.90;;;;;;4932051;29;20067;-85
2021/01/24 08:10:27;;;;;;;23.73;9.82;;;1.00;99.90;;;;;;4930653;29;20086;-84
2021/01/24 08:12:53;;;;;;;26.88;10.02;;;1.00;99.90;;;;;;4931792;29;20044;-84
2021/01/24 08:15:19;;;;;;;20.80;10.52;;;1.00;99.90;;;;;;4915344;29;20410;-84
2021/01/24 08:17:45;;;;;;;20.08;9.43;;;1.10;99.90;;;;;;4930239;29;20052;-84
2021/01/24 08:20:12;;;;;;;27.27;9.02;;;1.10;99.90;;;;;;4915102;29;20052;-84
2021/01/24 08:22:38;;;;;;;17.48;8.20;;;1.20;99.90;;;;;;4919001;29;20043;-84
2021/01/24 08:25:05;;;;;;;17.15;8.32;;;1.20;99.90;;;;;;4945948;29;20039;-84
2021/01/24 08:27:33;;;;;;;17.73;8.50;;;1.20;99.90;;;;;;4930107;29;20043;-84
2021/01/24 08:30:00;;;;;;;20.20;8.25;;;1.20;99.90;;;;;;4929984;29;21638;-83
2021/01/24 08:32:26;;;;;;;15.95;8.55;;;1.30;99.90;;;;;;4916353;29;20074;-83
2021/01/24 08:34:52;;;;;;;13.82;7.53;;;1.30;99.90;;;;;;4930103;29;20083;-83
2021/01/24 08:37:19;;;;;;;12.57;8.60;;;1.30;99.90;;;;;;4931094;29;20047;-84
2021/01/24 08:39:45;;;;;;;16.02;9.32;;;1.30;99.90;;;;;;4929978;29;20040;-83
2021/01/24 08:42:10;;;;;;;23.30;9.05;;;1.40;99.90;;;;;;4930740;29;20047;-84
2021/01/24 08:44:36;;;;;;;13.32;7.10;;;1.50;99.90;;;;;;4930514;29;20047;-83
2021/01/24 08:47:04;;;;;;;16.52;8.20;;;1.40;99.90;;;;;;4914163;29;20051;-84
2021/01/24 08:49:31;;;;;;;16.77;8.05;;;1.40;99.90;;;;;;4930869;29;20047;-83
2021/01/24 08:51:59;;;;;;;18.65;7.88;;;1.40;99.90;;;;;;4930836;29;20063;-84
2021/01/24 08:54:26;;;;;;;16.13;8.35;;;1.50;99.90;;;;;;4931801;29;20054;-83
2021/01/24 08:57:13;;;;;;;18.25;8.02;;;1.50;99.90;;;;;;4930699;29;20106;-84
2021/01/24 08:59:40;;;;;;;10.15;5.82;;;1.60;99.90;;;;;;4931663;29;20065;-84
2021/01/24 09:02:06;;;;;;;12.55;5.53;;;1.60;99.90;;;;;;4920429;29;20036;-83
2021/01/24 09:04:33;;;;;;;12.80;5.47;;;1.60;99.90;;;;;;4931682;29;20050;-83
2021/01/24 09:07:06;;;;;;;11.32;5.25;;;1.60;99.90;;;;;;4929382;29;20054;-84
2021/01/24 09:09:33;;;;;;;10.43;4.95;;;1.60;99.90;;;;;;4945984;29;20454;-84
2021/01/24 09:12:01;;;;;;;9.85;5.15;;;1.50;99.90;;;;;;4919310;29;20681;-84
2021/01/24 09:14:27;;;;;;;10.50;4.80;;;1.50;99.90;;;;;;4902264;29;20077;-85
2021/01/24 09:16:59;;;;;;;12.48;4.78;;;1.60;99.90;;;;;;4913964;29;20083;-83
2021/01/24 09:19:25;;;;;;;6.60;3.65;;;1.50;99.90;;;;;;4930004;29;20040;-84
2021/01/24 09:21:51;;;;;;;8.18;3.65;;;1.60;99.90;;;;;;4930292;29;20051;-84
2021/01/24 09:24:17;;;;;;;9.18;3.17;;;1.60;99.90;;;;;;4931094;29;20047;-83
2021/01/24 09:26:45;;;;;;;4.03;2.65;;;1.60;99.90;;;;;;4927973;29;20536;-85
2021/01/24 09:29:12;;;;;;;5.22;2.25;;;1.60;99.90;;;;;;4945980;29;20067;-84
2021/01/24 09:31:38;;;;;;;3.80;1.75;;;1.70;99.90;;;;;;4932013;29;20135;-84
2021/01/24 09:34:04;;;;;;;2.65;1.60;;;1.70;99.90;;;;;;4913636;29;20939;-84
2021/01/24 09:36:30;;;;;;;5.47;1.60;;;1.70;99.90;;;;;;4916823;29;20438;-84
2021/01/24 09:38:56;;;;;;;2.13;1.30;;;1.70;99.90;;;;;;4919463;29;20091;-84
2021/01/24 09:41:21;;;;;;;3.70;1.48;;;1.70;99.90;;;;;;4930115;29;20135;-82
2021/01/24 09:43:47;;;;;;;3.78;1.42;;;1.80;99.90;;;;;;4934103;29;20059;-84
2021/01/24 09:46:13;;;;;;;2.25;1.20;;;1.90;99.90;;;;;;4933014;29;20529;-84
2021/01/24 09:48:39;;;;;;;4.63;1.77;;;1.90;99.90;;;;;;4933022;29;20044;-83
2021/01/24 09:51:08;;;;;;;5.28;1.33;;;1.90;99.90;;;;;;4916921;29;20802;-83
2021/01/24 09:53:36;;;;;;;1.33;1.05;;;2.00;99.90;;;;;;4933608;29;20035;-85
2021/01/24 09:56:06;;;;;;;4.45;1.70;;;2.10;99.90;;;;;;4934079;29;20075;-83
2021/01/24 09:58:33;;;;;;;4.55;1.80;;;2.10;99.90;;;;;;4933791;29;20051;-84
2021/01/24 10:00:59;;;;;;;6.57;2.70;;;2.20;99.90;;;;;;4934976;29;20482;-83
2021/01/24 10:03:25;;;;;;;3.33;1.67;;;2.30;99.90;;;;;;4953280;28;20119;-83
2021/01/24 10:05:51;;;;;;;2.13;0.95;;;2.40;99.90;;;;;;4932699;29;20048;-84
2021/01/24 10:08:17;;;;;;;0.95;0.82;;;2.40;99.90;;;;;;4933408;29;20044;-85
2021/01/24 10:10:45;;;;;;;3.20;0.68;;;2.50;99.90;;;;;;4917742;29;20060;-83
2021/01/24 10:13:12;;;;;;;2.65;0.40;;;2.50;99.90;;;;;;4933062;29;20055;-84
2021/01/24 10:15:42;;;;;;;1.90;0.20;;;2.60;99.90;;;;;;4933091;29;20095;-84
2021/01/24 10:18:09;;;;;;;0.40;0.35;;;2.60;99.90;;;;;;4932771;29;20051;-82
2021/01/24 10:20:35;;;;;;;1.45;0.35;;;2.70;99.90;;;;;;4949453;29;20075;-84
2021/01/24 10:23:01;;;;;;;0.13;0.13;;;2.70;99.90;;;;;;4933932;29;20457;-84
2021/01/24 10:25:27;;;;;;;0.30;0.30;;;2.70;99.90;;;;;;4933021;29;20048;-84
2021/01/24 10:27:52;;;;;;;1.67;0.68;;;2.80;99.90;;;;;;4947703;29;20107;-82
2021/01/24 10:30:19;;;;;;;1.35;0.30;;;2.80;99.90;;;;;;4933196;29;20490;-84
2021/01/24 10:32:45;;;;;;;1.52;0.63;;;2.90;99.90;;;;;;4934585;29;20054;-84
2021/01/24 10:35:11;;;;;;;2.60;0.43;;;3.10;99.90;;;;;;4916838;29;20039;-84
2021/01/24 10:37:37;;;;;;;7.70;1.27;;;3.20;99.90;;;;;;4932826;29;20052;-84
2021/01/24 10:40:04;;;;;;;0.40;0.40;;;3.30;99.90;;;;;;4916276;29;20442;-84
2021/01/24 10:42:30;;;;;;;1.38;0.70;;;3.50;99.90;;;;;;4934047;29;20405;-84
2021/01/24 10:44:57;;;;;;;3.70;0.68;;;3.70;99.90;;;;;;4931940;29;20044;-84
2021/01/24 10:47:24;;;;;;;6.43;0.50;;;3.80;99.90;;;;;;4933706;29;20051;-85
2021/01/24 10:49:50;;;;;;;3.30;0.38;;;3.90;99.90;;;;;;4932309;29;20048;-85
2021/01/24 10:52:15;;;;;;;0.88;0.63;;;3.80;99.90;;;;;;4932353;29;20412;-85
2021/01/24 10:54:41;;;;;;;2.08;0.60;;;4.00;99.90;;;;;;4932929;29;20157;-85
2021/01/24 10:57:07;;;;;;;2.40;0.95;;;4.10;99.90;;;;;;4934455;29;20032;-84
2021/01/24 10:59:33;;;;;;;4.80;1.45;;;4.00;99.90;;;;;;4911064;29;20050;-86
2021/01/24 11:01:59;;;;;;;2.65;0.80;;;4.00;99.90;;;;;;4917729;29;20106;-85
2021/01/24 11:04:25;;;;;;;0.90;0.57;;;4.00;99.90;;;;;;4920722;29;20107;-86
2021/01/24 11:06:50;;;;;;;4.93;0.95;;;4.10;99.90;;;;;;4918734;29;20048;-88
2021/01/24 11:09:16;;;;;;;3.65;0.80;;;4.20;99.90;;;;;;4920854;29;20039;-84
2021/01/24 11:11:42;;;;;;;4.75;0.80;;;4.20;99.90;;;;;;4929930;29;20130;-84
2021/01/24 11:14:08;;;;;;;0.95;0.50;;;4.30;99.90;;;;;;4929051;29;20050;-85
2021/01/24 11:16:34;;;;;;;3.00;0.70;;;4.30;99.90;;;;;;4930073;29;20044;-86
2021/01/24 11:19:01;;;;;;;3.55;0.50;;;4.50;99.90;;;;;;4919569;29;20095;-85
2021/01/24 11:21:27;;;;;;;4.45;0.85;;;4.50;99.90;;;;;;4933628;29;20067;-85
2021/01/24 11:23:53;;;;;;;1.63;0.50;;;4.60;99.90;;;;;;4932131;29;20126;-87
2021/01/24 11:26:18;;;;;;;2.35;0.52;;;4.70;99.90;;;;;;4929011;29;20044;-88
2021/01/24 11:28:44;;;;;;;2.20;0.30;;;4.70;99.90;;;;;;4932839;29;20045;-85
2021/01/24 11:31:10;;;;;;;3.40;0.80;;;4.80;99.90;;;;;;4931639;29;20057;-85
2021/01/24 11:33:36;;;;;;;2.40;0.47;;;4.80;99.90;;;;;;4916056;29;20036;-85
2021/01/24 11:36:02;;;;;;;3.88;0.77;;;4.90;99.90;;;;;;4930825;29;20136;-86
2021/01/24 11:38:28;;;;;;;1.98;0.50;;;5.00;99.90;;;;;;4922262;29;20482;-83
2021/01/24 11:40:54;;;;;;;1.02;0.40;;;5.00;99.90;;;;;;4923830;29;20512;-89
2021/01/24 11:43:19;;;;;;;0.88;0.30;;;5.00;99.90;;;;;;4919759;29;20505;-86
2021/01/24 11:45:45;;;;;;;1.20;0.40;;;5.00;99.90;;;;;;4903322;29;20055;-88
2021/01/24 11:48:11;;;;;;;2.80;0.43;;;5.20;99.90;;;;;;4911102;29;20475;-86
2021/01/24 11:50:37;;;;;;;2.80;0.50;;;5.20;99.90;;;;;;4931030;29;20045;-87
2021/01/24 11:53:03;;;;;;;1.08;0.40;;;5.10;99.90;;;;;;4929861;29;20067;-86
2021/01/24 11:55:28;;;;;;;3.33;0.63;;;5.20;99.90;;;;;;4917965;29;20055;-87
2021/01/24 11:57:54;;;;;;;3.95;0.50;;;5.30;99.90;;;;;;4924677;29;20103;-86
2021/01/24 12:00:20;;;;;;;1.33;0.20;;;5.30;99.90;;;;;;4902572;29;20180;-86
2021/01/24 12:02:46;;;;;;;4.95;0.45;;;5.10;99.90;;;;;;4904869;29;20439;-85
2021/01/24 12:05:12;;;;;;;1.58;0.50;;;5.10;99.90;;;;;;4895406;29;20098;-85
2021/01/24 12:07:38;;;;;;;0.28;0.15;;;5.00;99.90;;;;;;4908286;29;20102;-86
2021/01/24 12:10:04;;;;;;;1.92;0.30;;;4.90;99.90;;;;;;4893218;29;20056;-86
2021/01/24 12:12:30;;;;;;;1.58;0.50;;;4.80;99.90;;;;;;4940643;29;20052;-86
2021/01/24 12:14:56;;;;;;;1.23;0.50;;;4.70;99.90;;;;;;4922878;29;20046;-85
2021/01/24 12:17:24;;;;;;;3.25;0.40;;;4.60;99.90;;;;;;4895580;29;20055;-86
2021/01/24 12:19:51;;;;;;;3.53;1.00;;;4.50;99.90;;;;;;4928428;29;20052;-86
2021/01/24 12:22:17;;;;;;;1.45;1.08;;;4.30;99.90;;;;;;4930312;29;20099;-86
2021/01/24 12:24:43;;;;;;;1.23;0.90;;;4.20;99.90;;;;;;4914609;29;20460;-86
2021/01/24 12:27:09;;;;;;;5.05;0.98;;;4.30;99.90;;;;;;4926647;29;20044;-87
2021/01/24 12:29:34;;;;;;;0.98;0.75;;;4.50;99.90;;;;;;4914386;29;20052;-85
2021/01/24 12:32:00;;;;;;;0.30;0.30;;;4.30;99.90;;;;;;4930071;29;20051;-87
2021/01/24 12:34:27;;;;;;;0.47;0.40;;;4.10;99.90;;;;;;4898461;29;20048;-86
2021/01/24 12:36:52;;;;;;;2.30;0.13;;;4.00;99.90;;;;;;4930299;29;20405;-85
2021/01/24 12:39:18;;;;;;;0.50;0.43;;;4.10;99.90;;;;;;4928492;29;20052;-85
2021/01/24 12:41:44;;;;;;;0.40;0.40;;;3.80;99.90;;;;;;4930799;29;20050;-85
2021/01/24 12:44:10;;;;;;;1.98;0.77;;;3.60;99.90;;;;;;4898386;29;20059;-86
2021/01/24 12:46:36;;;;;;;0.68;0.35;;;3.50;99.90;;;;;;4930647;29;20405;-84